createdAt,value
2019-05-23T00:01:19.938Z,12.90
2019-05-23T00:03:52.706Z,12.30
2019-05-23T00:06:23.765Z,13.00
2019-05-23T00:08:52.628Z,14.13
2019-05-23T00:11:30.529Z,11.80
2019-05-23T00:14:01.674Z,11.70
2019-05-23T00:16:31.969Z,13.10
2019-05-23T00:19:02.715Z,12.17
2019-05-23T00:21:33.000Z,11.13
2019-05-23T00:24:04.080Z,11.73
2019-05-23T00:26:34.230Z,12.67
2019-05-23T00:29:09.967Z,12.53
2019-05-23T00:31:38.563Z,12.50
2019-05-23T00:34:09.537Z,12.77
2019-05-23T00:36:38.143Z,18.53
2019-05-23T00:39:09.112Z,11.17
2019-05-23T00:41:39.866Z,14.77
2019-05-23T00:44:09.032Z,13.53
2019-05-23T00:46:37.947Z,11.57
2019-05-23T00:49:08.290Z,10.83
2019-05-23T00:51:36.999Z,9.73
2019-05-23T00:54:06.418Z,17.20
2019-05-23T00:56:37.270Z,12.43
2019-05-23T00:59:06.034Z,13.20
2019-05-23T01:01:34.938Z,11.43
2019-05-23T01:04:03.906Z,11.83
2019-05-23T01:06:33.516Z,12.90
2019-05-23T01:09:03.336Z,11.53
2019-05-23T01:11:33.282Z,18.20
2019-05-23T01:14:02.181Z,12.37
2019-05-23T01:16:32.855Z,12.60
2019-05-23T01:19:01.864Z,12.27
2019-05-23T01:21:51.060Z,11.30
2019-05-23T01:24:23.600Z,10.93
2019-05-23T01:26:52.690Z,13.63
2019-05-23T01:29:22.211Z,11.93
2019-05-23T01:31:52.429Z,9.50
2019-05-23T01:34:22.098Z,10.43
2019-05-23T01:36:51.195Z,9.50
2019-05-23T01:39:19.772Z,10.20
2019-05-23T01:41:48.454Z,11.17
2019-05-23T01:44:17.935Z,9.43
2019-05-23T01:46:46.625Z,11.47
2019-05-23T01:49:15.368Z,10.57
2019-05-23T01:51:44.647Z,11.20
2019-05-23T01:54:13.587Z,10.43
2019-05-23T01:56:42.660Z,13.10
2019-05-23T01:59:11.764Z,9.43
2019-05-23T02:01:41.712Z,11.77
2019-05-23T02:04:10.247Z,11.10
2019-05-23T02:06:39.274Z,11.20
2019-05-23T02:09:09.315Z,10.20
2019-05-23T02:11:37.929Z,10.23
2019-05-23T02:14:07.991Z,10.53
2019-05-23T02:16:37.346Z,9.47
2019-05-23T02:19:07.020Z,10.40
2019-05-23T02:21:36.126Z,10.07
2019-05-23T02:24:06.834Z,10.10
2019-05-23T02:26:35.805Z,10.17
2019-05-23T02:29:05.099Z,8.73
2019-05-23T02:31:34.346Z,10.97
2019-05-23T02:34:03.023Z,8.63
2019-05-23T02:36:32.432Z,10.80
2019-05-23T02:39:18.920Z,9.47
2019-05-23T02:41:51.870Z,9.57
2019-05-23T02:44:25.296Z,12.10
2019-05-23T02:46:56.555Z,10.43
2019-05-23T02:49:31.427Z,10.90
2019-05-23T02:52:03.121Z,9.93
2019-05-23T02:54:36.958Z,18.77
2019-05-23T02:57:04.749Z,10.40
2019-05-23T02:59:48.583Z,9.57
2019-05-23T03:02:40.018Z,10.80
2019-05-23T03:05:11.190Z,10.80
2019-05-23T03:07:42.027Z,8.60
2019-05-23T03:10:13.332Z,10.60
2019-05-23T03:12:43.837Z,9.20
2019-05-23T03:15:14.769Z,10.97
2019-05-23T03:17:47.313Z,10.23
2019-05-23T03:20:16.455Z,11.67
2019-05-23T03:22:50.772Z,9.97
2019-05-23T03:25:39.236Z,9.80
2019-05-23T03:28:09.919Z,10.20
2019-05-23T03:30:40.372Z,11.07
2019-05-23T03:33:13.237Z,9.63
2019-05-23T03:35:46.464Z,10.20
2019-05-23T03:38:15.523Z,10.33
2019-05-23T03:40:44.417Z,9.30
2019-05-23T03:43:13.585Z,10.53
2019-05-23T03:45:45.520Z,10.20
2019-05-23T03:48:14.016Z,10.87
2019-05-23T03:50:44.411Z,10.13
2019-05-23T03:53:12.936Z,11.07
2019-05-23T03:55:42.745Z,9.70
2019-05-23T03:58:12.854Z,11.57
2019-05-23T04:00:43.016Z,9.93
2019-05-23T04:03:11.942Z,9.60
2019-05-23T04:05:41.399Z,10.77
2019-05-23T04:08:10.938Z,10.33
2019-05-23T04:10:39.481Z,10.03
2019-05-23T04:13:08.731Z,10.63
2019-05-23T04:15:37.866Z,10.97
2019-05-23T04:18:06.625Z,11.10
2019-05-23T04:20:35.138Z,15.23
2019-05-23T04:23:04.181Z,13.83
2019-05-23T04:25:33.084Z,8.97
2019-05-23T04:28:02.715Z,12.20
2019-05-23T04:30:31.376Z,9.80
2019-05-23T04:33:00.393Z,10.33
2019-05-23T04:35:28.907Z,9.90
2019-05-23T04:37:57.774Z,9.83
2019-05-23T04:40:26.576Z,11.43
2019-05-23T04:42:55.080Z,11.80
2019-05-23T04:45:24.440Z,11.30
2019-05-23T04:47:52.958Z,12.10
2019-05-23T04:50:21.753Z,12.40
2019-05-23T04:52:50.717Z,10.57
2019-05-23T04:55:19.795Z,11.47
2019-05-23T04:57:48.517Z,11.93
2019-05-23T05:00:19.185Z,11.50
2019-05-23T05:02:47.991Z,10.90
2019-05-23T05:05:16.727Z,11.10
2019-05-23T05:07:45.428Z,13.43
2019-05-23T05:10:17.142Z,11.03
2019-05-23T05:12:46.178Z,16.20
2019-05-23T05:15:15.323Z,18.40
2019-05-23T05:17:44.685Z,13.03
2019-05-23T05:20:13.887Z,10.60
2019-05-23T05:22:42.659Z,13.73
2019-05-23T05:25:13.367Z,12.80
2019-05-23T05:27:42.243Z,15.37
2019-05-23T05:30:11.093Z,12.40
2019-05-23T05:32:44.680Z,13.60
2019-05-23T05:35:10.359Z,13.70
2019-05-23T05:37:38.961Z,14.97
2019-05-23T05:40:08.199Z,13.30
2019-05-23T05:42:37.878Z,10.50
2019-05-23T05:45:09.092Z,11.27
2019-05-23T05:47:38.202Z,11.60
2019-05-23T05:50:09.418Z,11.27
2019-05-23T05:52:39.027Z,11.13
2019-05-23T05:55:08.385Z,11.13
2019-05-23T05:57:37.200Z,11.80
2019-05-23T06:00:13.276Z,11.23
2019-05-23T06:02:42.075Z,10.23
2019-05-23T06:05:12.587Z,10.23
2019-05-23T06:07:43.665Z,9.90
2019-05-23T06:10:14.216Z,9.50
2019-05-23T06:12:43.064Z,8.93
2019-05-23T06:15:12.223Z,9.57
2019-05-23T06:17:40.854Z,11.43
2019-05-23T06:20:10.185Z,10.10
2019-05-23T06:22:40.655Z,9.03
2019-05-23T06:25:10.354Z,10.00
2019-05-23T06:27:40.285Z,9.97
2019-05-23T06:30:12.472Z,10.80
2019-05-23T06:32:41.399Z,9.50
2019-05-23T06:35:10.177Z,10.03
2019-05-23T06:37:39.761Z,9.43
2019-05-23T06:40:09.742Z,9.63
2019-05-23T06:42:38.617Z,9.47
2019-05-23T06:45:11.213Z,8.83
2019-05-23T06:47:40.479Z,9.83
2019-05-23T06:50:16.127Z,12.33
2019-05-23T06:52:45.026Z,12.60
2019-05-23T06:55:13.626Z,9.87
2019-05-23T06:57:42.239Z,11.77
2019-05-23T07:00:13.220Z,10.53
2019-05-23T07:02:41.977Z,9.53
2019-05-23T07:05:11.242Z,9.23
2019-05-23T07:07:41.470Z,10.63
2019-05-23T07:10:10.439Z,12.63
2019-05-23T07:12:39.370Z,9.30
2019-05-23T07:15:08.786Z,12.20
2019-05-23T07:17:38.197Z,10.07
2019-05-23T07:20:08.387Z,10.60
2019-05-23T07:22:37.025Z,11.50
2019-05-23T07:25:07.493Z,10.60
2019-05-23T07:27:36.628Z,9.53
2019-05-23T07:30:23.462Z,9.80
2019-05-23T07:32:52.264Z,10.30
2019-05-23T07:35:21.259Z,10.93
2019-05-23T07:37:49.786Z,11.73
2019-05-23T07:40:18.665Z,11.00
2019-05-23T07:42:47.565Z,9.70
2019-05-23T07:45:20.479Z,12.67
2019-05-23T07:47:49.188Z,12.77
2019-05-23T07:50:18.497Z,11.27
2019-05-23T07:52:47.319Z,10.40
2019-05-23T07:55:17.573Z,9.07
2019-05-23T07:57:46.081Z,10.80
2019-05-23T08:00:19.085Z,10.37
2019-05-23T08:02:50.858Z,10.63
2019-05-23T08:05:21.221Z,11.03
2019-05-23T08:07:50.124Z,15.30
2019-05-23T08:10:32.504Z,10.83
2019-05-23T08:12:48.918Z,10.00
2019-05-23T08:15:17.728Z,11.00
2019-05-23T08:17:46.502Z,11.27
2019-05-23T08:20:16.043Z,12.60
2019-05-23T08:22:45.565Z,12.60
2019-05-23T08:25:14.340Z,10.93
2019-05-23T08:27:43.441Z,12.20
2019-05-23T08:30:14.355Z,11.73
2019-05-23T08:32:42.927Z,11.50
2019-05-23T08:35:16.201Z,10.30
2019-05-23T08:37:42.466Z,10.40
2019-05-23T08:40:12.923Z,12.43
2019-05-23T08:42:41.494Z,9.80
2019-05-23T08:45:11.563Z,10.87
2019-05-23T08:47:40.075Z,15.83
2019-05-23T08:50:11.304Z,12.47
2019-05-23T08:52:40.195Z,12.47
2019-05-23T08:55:20.383Z,13.13
2019-05-23T08:57:49.226Z,12.07
2019-05-23T09:00:20.182Z,12.90
2019-05-23T09:02:49.302Z,12.07
2019-05-23T09:05:19.083Z,12.50
2019-05-23T09:07:48.164Z,11.43
2019-05-23T09:10:17.937Z,12.13
2019-05-23T09:12:47.842Z,12.20
2019-05-23T09:15:16.842Z,16.27
2019-05-23T09:17:53.089Z,12.10
2019-05-23T09:20:16.934Z,13.73
2019-05-23T09:22:45.837Z,14.07
2019-05-23T09:25:16.432Z,13.50
2019-05-23T09:27:45.539Z,12.90
2019-05-23T09:30:16.039Z,13.57
2019-05-23T09:32:44.843Z,13.27
2019-05-23T09:35:20.822Z,12.10
2019-05-23T09:37:45.003Z,15.67
2019-05-23T09:40:14.316Z,16.03
2019-05-23T09:42:43.030Z,21.43
2019-05-23T09:45:11.904Z,15.13
2019-05-23T09:47:40.693Z,15.10
2019-05-23T09:50:11.820Z,14.00
2019-05-23T09:52:40.411Z,14.03
2019-05-23T09:55:09.221Z,14.53
2019-05-23T09:57:37.857Z,16.50
2019-05-23T10:00:09.367Z,24.23
2019-05-23T10:02:37.966Z,19.87
2019-05-23T10:05:12.378Z,19.43
2019-05-23T10:07:40.984Z,26.10
2019-05-23T10:10:11.741Z,19.13
2019-05-23T10:12:40.310Z,18.80
2019-05-23T10:15:11.754Z,18.97
2019-05-23T10:17:40.321Z,19.47
2019-05-23T10:20:09.826Z,20.03
2019-05-23T10:22:38.266Z,19.37
2019-05-23T10:25:07.951Z,20.83
2019-05-23T10:27:36.430Z,24.50
2019-05-23T10:30:10.765Z,20.47
2019-05-23T10:32:39.293Z,20.30
2019-05-23T10:35:09.480Z,22.03
2019-05-23T10:37:38.227Z,22.93
2019-05-23T10:40:08.475Z,19.73
2019-05-23T10:42:38.093Z,24.23
2019-05-23T10:45:10.026Z,22.87
2019-05-23T10:47:38.906Z,25.33
2019-05-23T10:50:10.114Z,22.87
2019-05-23T10:52:38.836Z,22.50
2019-05-23T10:55:07.658Z,31.07
2019-05-23T10:57:36.579Z,21.67
2019-05-23T11:00:10.239Z,26.70
2019-05-23T11:02:39.718Z,30.30
2019-05-23T11:05:13.350Z,33.37
2019-05-23T11:07:41.378Z,31.93
2019-05-23T11:10:10.837Z,35.03
2019-05-23T11:12:39.566Z,24.13
2019-05-23T11:15:08.343Z,19.77
2019-05-23T11:17:37.301Z,29.40
2019-05-23T11:20:08.602Z,24.63
2019-05-23T11:22:37.126Z,22.33
2019-05-23T11:25:07.879Z,21.47
2019-05-23T11:27:37.104Z,25.20
2019-05-23T11:30:13.733Z,23.80
2019-05-23T11:32:42.285Z,18.80
2019-05-23T11:35:11.169Z,22.30
2019-05-23T11:37:41.867Z,40.70
2019-05-23T11:40:10.511Z,21.93
2019-05-23T11:42:39.127Z,20.63
2019-05-23T11:45:08.604Z,17.03
2019-05-23T11:47:37.579Z,16.87
2019-05-23T11:50:07.055Z,20.00
2019-05-23T11:52:35.640Z,18.43
2019-05-23T11:55:06.500Z,16.00
2019-05-23T11:57:37.760Z,20.47
2019-05-23T12:00:11.318Z,19.10
2019-05-23T12:02:44.092Z,16.77
2019-05-23T12:05:14.819Z,17.13
2019-05-23T12:07:43.344Z,16.90
2019-05-23T12:10:12.114Z,21.83
2019-05-23T12:12:40.713Z,14.60
2019-05-23T12:15:12.723Z,22.47
2019-05-23T12:17:41.876Z,17.83
2019-05-23T12:20:10.806Z,14.00
2019-05-23T12:22:40.162Z,12.90
2019-05-23T12:25:22.023Z,13.27
2019-05-23T12:27:40.287Z,10.80
2019-05-23T12:30:11.994Z,12.30
2019-05-23T12:32:40.687Z,12.73
2019-05-23T12:35:11.844Z,15.33
2019-05-23T12:37:39.838Z,19.63
2019-05-23T12:40:10.299Z,19.30
2019-05-23T12:42:38.742Z,12.07
2019-05-23T12:45:10.602Z,12.20
2019-05-23T12:47:40.773Z,10.93
2019-05-23T12:50:11.300Z,11.77
2019-05-23T12:52:39.864Z,14.43
2019-05-23T12:55:08.558Z,12.47
2019-05-23T12:57:37.300Z,13.80
2019-05-23T13:00:09.448Z,12.90
2019-05-23T13:02:38.228Z,13.17
2019-05-23T13:05:09.194Z,11.30
2019-05-23T13:07:37.743Z,10.77
2019-05-23T13:10:06.943Z,15.33
2019-05-23T13:12:35.424Z,12.23
2019-05-23T13:15:05.744Z,10.67
2019-05-23T13:17:34.290Z,11.57
2019-05-23T13:20:03.272Z,12.73
2019-05-23T13:22:32.104Z,13.87
2019-05-23T13:25:00.840Z,18.73
2019-05-23T13:27:29.571Z,12.80
2019-05-23T13:29:58.141Z,12.17
2019-05-23T13:32:26.922Z,13.23
2019-05-23T13:34:55.514Z,12.33
2019-05-23T13:37:23.967Z,12.70
2019-05-23T13:39:52.647Z,13.13
2019-05-23T13:42:24.391Z,10.60
2019-05-23T13:44:53.221Z,11.27
2019-05-23T13:47:21.933Z,10.03
2019-05-23T13:49:52.174Z,11.60
2019-05-23T13:52:20.783Z,9.80
2019-05-23T13:54:49.649Z,10.27
2019-05-23T13:57:18.333Z,10.23
2019-05-23T13:59:47.186Z,10.53
2019-05-23T14:02:15.667Z,11.00
2019-05-23T14:04:44.472Z,11.10
2019-05-23T14:07:13.208Z,10.93
2019-05-23T14:09:41.996Z,11.43
2019-05-23T14:12:26.000Z,8.87
2019-05-23T14:14:40.979Z,9.90
2019-05-23T14:17:11.292Z,12.20
2019-05-23T14:19:40.107Z,10.77
2019-05-23T14:22:08.630Z,7.83
2019-05-23T14:24:38.173Z,15.23
2019-05-23T14:27:08.426Z,8.93
2019-05-23T14:29:37.203Z,10.33
2019-05-23T14:32:22.697Z,9.40
2019-05-23T14:34:52.860Z,9.93
2019-05-23T14:37:34.745Z,11.03
2019-05-23T14:40:05.108Z,9.87
2019-05-23T14:42:53.608Z,13.60
2019-05-23T14:45:35.980Z,10.43
2019-05-23T14:48:15.502Z,13.77
2019-05-23T14:50:55.045Z,10.57
2019-05-23T14:53:25.472Z,10.93
2019-05-23T14:55:54.042Z,9.20
2019-05-23T14:58:22.921Z,10.37
2019-05-23T15:00:52.847Z,8.50
2019-05-23T15:03:21.624Z,10.30
2019-05-23T15:05:50.269Z,17.47
2019-05-23T15:08:19.140Z,9.73
2019-05-23T15:10:47.901Z,8.03
2019-05-23T15:13:16.696Z,8.80
2019-05-23T15:15:45.138Z,8.53
2019-05-23T15:18:13.571Z,9.00
2019-05-23T15:20:42.170Z,10.97
2019-05-23T15:23:10.609Z,9.53
2019-05-23T15:25:39.131Z,19.47
2019-05-23T15:28:07.941Z,12.10
2019-05-23T15:30:36.519Z,8.07
2019-05-23T15:33:05.365Z,10.20
2019-05-23T15:35:34.724Z,9.87
2019-05-23T15:38:03.419Z,11.20
2019-05-23T15:40:32.317Z,9.80
2019-05-23T15:43:00.777Z,10.53
2019-05-23T15:45:29.647Z,7.40
2019-05-23T15:47:58.232Z,7.83
2019-05-23T15:50:28.746Z,11.53
2019-05-23T15:53:04.827Z,9.97
2019-05-23T15:55:35.061Z,14.07
2019-05-23T15:58:05.593Z,11.23
2019-05-23T16:00:52.191Z,16.13
2019-05-23T16:03:40.543Z,11.00
2019-05-23T16:06:10.647Z,13.00
2019-05-23T16:08:39.276Z,27.03
2019-05-23T16:11:07.937Z,10.47
2019-05-23T16:13:36.392Z,10.13
2019-05-23T16:16:05.165Z,9.83
2019-05-23T16:18:33.863Z,9.90
2019-05-23T16:21:02.681Z,15.20
2019-05-23T16:23:31.190Z,10.53
2019-05-23T16:26:00.466Z,10.47
2019-05-23T16:28:28.940Z,12.80
2019-05-23T16:30:58.086Z,11.93
2019-05-23T16:33:26.721Z,10.03
2019-05-23T16:35:55.312Z,10.90
2019-05-23T16:38:23.751Z,8.53
2019-05-23T16:40:52.317Z,9.90
2019-05-23T16:43:20.903Z,11.20
2019-05-23T16:45:49.358Z,11.50
2019-05-23T16:48:18.060Z,10.47
2019-05-23T16:50:46.516Z,13.23
2019-05-23T16:53:15.216Z,9.60
2019-05-23T16:55:57.339Z,11.03
2019-05-23T16:58:45.485Z,9.43
2019-05-23T17:01:24.239Z,12.37
2019-05-23T17:03:57.339Z,9.00
2019-05-23T17:06:30.845Z,12.93
2019-05-23T17:09:15.734Z,11.30
2019-05-23T17:11:57.861Z,11.83
2019-05-23T17:14:37.218Z,8.77
2019-05-23T17:17:07.328Z,9.67
2019-05-23T17:19:43.724Z,9.10
2019-05-23T17:22:23.142Z,9.33
2019-05-23T17:24:55.952Z,9.80
2019-05-23T17:27:34.548Z,9.97
2019-05-23T17:30:17.546Z,7.93
2019-05-23T17:32:46.248Z,9.77
2019-05-23T17:35:14.748Z,11.10
2019-05-23T17:37:43.525Z,10.30
2019-05-23T17:40:24.355Z,10.17
2019-05-23T17:42:42.350Z,8.73
2019-05-23T17:45:13.994Z,8.33
2019-05-23T17:47:41.954Z,8.33
2019-05-23T17:50:10.814Z,8.53
2019-05-23T17:52:39.583Z,7.80
2019-05-23T17:55:08.615Z,7.60
2019-05-23T17:57:37.484Z,8.47
2019-05-23T18:00:08.804Z,6.60
2019-05-23T18:02:37.272Z,11.77
2019-05-23T18:05:07.354Z,8.80
2019-05-23T18:07:36.839Z,17.93
2019-05-23T18:10:07.591Z,8.90
2019-05-23T18:12:36.592Z,7.63
2019-05-23T18:15:08.617Z,6.77
2019-05-23T18:17:37.629Z,7.60
2019-05-23T18:20:08.165Z,7.60
2019-05-23T18:22:37.138Z,7.30
2019-05-23T18:25:08.388Z,11.00
2019-05-23T18:27:36.984Z,7.40
2019-05-23T18:30:08.495Z,7.37
2019-05-23T18:32:37.308Z,6.57
2019-05-23T18:35:10.442Z,7.90
2019-05-23T18:37:39.323Z,7.87
2019-05-23T18:40:08.564Z,7.13
2019-05-23T18:42:39.365Z,9.60
2019-05-23T18:45:09.463Z,7.90
2019-05-23T18:47:39.843Z,9.73
2019-05-23T18:50:08.958Z,12.20
2019-05-23T18:52:38.251Z,10.33
2019-05-23T18:55:07.715Z,9.97
2019-05-23T18:57:37.016Z,11.00
2019-05-23T19:00:08.178Z,10.60
2019-05-23T19:02:37.041Z,10.47
2019-05-23T19:05:10.075Z,11.90
2019-05-23T19:07:39.318Z,10.87
2019-05-23T19:10:09.155Z,11.73
2019-05-23T19:12:37.863Z,10.60
2019-05-23T19:15:09.491Z,13.20
2019-05-23T19:17:38.552Z,12.80
2019-05-23T19:20:08.976Z,13.10
2019-05-23T19:22:39.085Z,10.87
2019-05-23T19:25:10.052Z,20.63
2019-05-23T19:27:39.924Z,12.83
2019-05-23T19:30:10.916Z,12.27
2019-05-23T19:32:42.214Z,11.73
2019-05-23T19:35:10.894Z,10.50
2019-05-23T19:37:39.901Z,13.17
2019-05-23T19:40:09.530Z,13.43
2019-05-23T19:42:38.434Z,16.53
2019-05-23T19:45:08.242Z,12.10
2019-05-23T19:47:38.301Z,11.60
2019-05-23T19:50:08.439Z,11.70
2019-05-23T19:52:37.078Z,11.97
2019-05-23T19:55:07.670Z,11.00
2019-05-23T19:57:37.368Z,10.47
2019-05-23T20:00:11.148Z,11.27
2019-05-23T20:02:44.080Z,11.70
2019-05-23T20:05:29.813Z,12.27
2019-05-23T20:07:58.538Z,11.37
2019-05-23T20:10:28.335Z,12.93
2019-05-23T20:12:56.951Z,12.43
2019-05-23T20:15:25.848Z,13.57
2019-05-23T20:17:54.524Z,15.53
2019-05-23T20:20:23.156Z,13.90
2019-05-23T20:22:51.758Z,16.43
2019-05-23T20:25:20.749Z,15.07
2019-05-23T20:27:49.367Z,13.20
2019-05-23T20:30:38.137Z,11.97
2019-05-23T20:33:06.723Z,12.23
2019-05-23T20:35:35.262Z,12.30
2019-05-23T20:38:04.270Z,15.77
2019-05-23T20:40:32.956Z,13.03
2019-05-23T20:43:02.665Z,14.27
2019-05-23T20:45:31.320Z,13.73
2019-05-23T20:47:59.758Z,13.60
2019-05-23T20:50:28.196Z,13.63
2019-05-23T20:52:56.831Z,18.23
2019-05-23T20:55:25.724Z,12.93
2019-05-23T20:57:54.265Z,14.63
2019-05-23T21:00:34.218Z,13.73
2019-05-23T21:03:03.552Z,14.17
2019-05-23T21:05:32.503Z,19.83
2019-05-23T21:08:00.993Z,15.30
2019-05-23T21:10:44.987Z,13.13
2019-05-23T21:13:13.634Z,14.23
2019-05-23T21:15:42.141Z,16.43
2019-05-23T21:18:11.094Z,15.57
2019-05-23T21:20:39.833Z,13.77
2019-05-23T21:23:08.513Z,14.93
2019-05-23T21:25:38.669Z,15.43
2019-05-23T21:28:07.325Z,14.40
2019-05-23T21:30:36.003Z,13.63
2019-05-23T21:33:05.571Z,14.57
2019-05-23T21:35:34.319Z,14.03
2019-05-23T21:38:02.971Z,13.83
2019-05-23T21:40:37.361Z,12.87
2019-05-23T21:43:06.571Z,18.63
2019-05-23T21:45:35.316Z,11.43
2019-05-23T21:48:04.244Z,12.90
2019-05-23T21:50:33.062Z,11.87
2019-05-23T21:53:01.960Z,11.77
2019-05-23T21:55:43.812Z,11.13
2019-05-23T21:58:13.922Z,11.93
2019-05-23T22:01:08.349Z,12.43
2019-05-23T22:03:56.235Z,15.13
2019-05-23T22:06:29.207Z,19.57
2019-05-23T22:08:59.455Z,14.47
2019-05-23T22:11:28.064Z,14.13
2019-05-23T22:13:57.317Z,14.47
2019-05-23T22:16:26.387Z,12.47
2019-05-23T22:18:55.014Z,12.70
2019-05-23T22:21:23.630Z,11.87
2019-05-23T22:23:52.082Z,11.80
2019-05-23T22:26:20.652Z,14.47
2019-05-23T22:28:49.122Z,12.57
2019-05-23T22:31:18.099Z,12.43
2019-05-23T22:33:54.288Z,12.90
2019-05-23T22:36:23.996Z,12.70
2019-05-23T22:38:52.519Z,14.40
2019-05-23T22:41:21.114Z,12.07
2019-05-23T22:43:49.623Z,22.70
2019-05-23T22:46:20.046Z,11.67
2019-05-23T22:48:48.587Z,15.17
2019-05-23T22:51:17.170Z,13.73
2019-05-23T22:53:45.692Z,11.90
2019-05-23T22:56:14.330Z,13.27
2019-05-23T22:58:43.009Z,12.83
2019-05-23T23:01:11.512Z,14.47
2019-05-23T23:03:39.974Z,14.43
2019-05-23T23:06:08.475Z,26.00
2019-05-23T23:08:37.285Z,15.40
2019-05-23T23:11:05.922Z,16.93
2019-05-23T23:13:38.535Z,14.90
2019-05-23T23:16:05.180Z,14.30
2019-05-23T23:18:33.618Z,16.90
2019-05-23T23:21:02.128Z,13.70
2019-05-23T23:23:30.571Z,13.23
2019-05-23T23:25:59.115Z,16.73
2019-05-23T23:28:27.553Z,15.47
2019-05-23T23:30:56.064Z,15.13
2019-05-23T23:33:24.709Z,14.40
2019-05-23T23:35:53.695Z,15.60
2019-05-23T23:38:22.129Z,14.33
2019-05-23T23:40:50.603Z,16.93
2019-05-23T23:43:19.047Z,14.07
2019-05-23T23:46:05.396Z,16.10
2019-05-23T23:48:52.105Z,15.47
2019-05-23T23:51:38.265Z,15.00
2019-05-23T23:54:24.181Z,14.43
2019-05-23T23:57:10.720Z,15.87
2019-05-23T23:59:38.502Z,16.57
